Pagina principale
METAR-TAF:

METAR-TAF

Aeroporti :

Aeroporto di Genova-Sestri

Genova, Italia

latitudine: 44-25N, longitudine: 008-51E, altezza: 2 m

Osservazione

Il bollettino è stato emesso 21 minuti fa, alle 08:20 UTC
Vento 10 kt da nord-est, variando fra nord e est/nord-est
Temperature 10°C
Umidità 53%
Pressione 1013 hPa
Visibilità 10 km o più
Nubi sparse ad un'altezza di 3100 ft

METAR: LIMJ 210820Z 04010KT 010V070 9999 SCT031 10/01 Q1013

Ora: 09:41 (08:41 UTC)

Previsione

Il bollettino è stato emesso 3 ore e 41 minuti fa, alle 05:00 UTC
Previsione valida dal 21 alle 06 UTC al 22 alle 06 UTC
Vento 8 kt da nord
Visibilità 10 km o più
Nubi sparse ad un'altezza di 2500 ft
Temporaneamente
dal 21 alle 09 UTC al 21 alle 18 UTC
pioggia

TAF: LIMJ 210500Z 2106/2206 01008KT 9999 SCT025 TEMPO 2109/2118 RA

Osservazioni e previsioni meteorologiche di più di 4000 aeroporti (messaggi METAR e TAF).

Le stazioni disponibili sono rappresentate dai dischi gialli e rossi sulla carta.

Puntare il mouse per vedere il nome della stazione.

Clicca sopra per visualizzare le osservazioni e previsioni meteorologiche.

Per cambiare la mappa : fare clic sui pulsanti verdi con una croce nera per ingrandire, il pulsante verde con un trattino per diminuire, o sulla freccia verde per le mappe adiacenti.


METAR-TAF: